aviador You're here:

LFPG Decoded Metar

PARIS CHARLES DE GAULLE in FRANCE
Report Time2017-12-11 22:30:00
UTC Time2017-12-11 22:52:06
Flight Rules vfr VFR
Wind280° at 13 kt
W.Decomp.*RWY 27: 12.8 kt HW 2.5 kt RCW
RWY 26: 12.1 kt HW 4.7 kt RCW
W.Rank280° ranks 13
Current wind is above 280° avg. (8.0)
Visibility9999 m
Phenomena:N/A
Clouds:Scattered 017 Hf
Scattered 073 Hf
Broken 100 Hf
Expected CloudBase > 800 ft AGL from Temp-Dew spread
Ceiling10,000 ft
Temp03°C (ISA -11)
Dew Point01°C (87% RH)
AAT-3.5°C
QNH0995 hPa
Density Alt-302 ft
Elevation358 ft
Report Wrong Elevation
Raw Report
LFPG 112230Z 28013KT 9999 SCT017 SCT073 BKN100 03/01 Q0995
NOSIG=

Extra information for LFPG:More info

Metar Taf Metar & Taf Last 4 Metars F.Rules Stats Wind Profile Meteogram Temp Stats Airport Information Weather charts Add Link Nearby VenuesMetar ALERT Operation Metar Decoded Social comments